createdAt,value
2018-12-01T00:09:46.107Z,32.87
2018-12-01T00:19:50.415Z,34.50
2018-12-01T00:29:53.748Z,31.50
2018-12-01T00:39:57.047Z,33.47
2018-12-01T00:50:00.434Z,32.43
2018-12-01T01:00:05.515Z,32.20
2018-12-01T01:10:10.029Z,34.57
2018-12-01T01:20:14.595Z,32.37
2018-12-01T01:30:22.059Z,31.30
2018-12-01T01:40:25.420Z,34.33
2018-12-01T01:50:28.751Z,32.70
2018-12-01T02:00:32.148Z,32.80
2018-12-01T02:10:35.448Z,31.83
2018-12-01T02:20:38.863Z,33.20
2018-12-01T02:30:42.135Z,33.70
2018-12-01T02:40:45.506Z,32.43
2018-12-01T02:50:48.831Z,33.47
2018-12-01T03:00:52.174Z,32.20
2018-12-01T03:10:55.551Z,33.23
2018-12-01T03:20:58.835Z,32.77
2018-12-01T03:31:02.192Z,33.57
2018-12-01T03:41:05.567Z,32.33
2018-12-01T03:51:08.872Z,33.67
2018-12-01T04:01:12.206Z,32.97
2018-12-01T04:11:15.558Z,34.43
2018-12-01T04:21:18.900Z,34.77
2018-12-01T04:31:22.258Z,31.67
2018-12-01T04:41:25.578Z,30.23
2018-12-01T04:51:28.934Z,31.57
2018-12-01T05:01:32.278Z,31.97
2018-12-01T05:11:36.502Z,31.20
2018-12-01T05:21:39.898Z,31.13
2018-12-01T05:31:43.224Z,33.93
2018-12-01T05:41:46.590Z,34.20
2018-12-01T05:51:49.939Z,34.37
2018-12-01T06:01:53.320Z,33.53
2018-12-01T06:11:56.534Z,35.10
2018-12-01T06:22:00.878Z,34.30
2018-12-01T06:32:04.439Z,34.27
2018-12-01T06:42:07.866Z,34.37
2018-12-01T06:52:11.343Z,34.93
2018-12-01T07:02:14.872Z,38.07
2018-12-01T07:12:18.207Z,37.23
2018-12-01T07:22:21.555Z,33.40
2018-12-01T07:32:24.927Z,33.30
2018-12-01T07:42:28.142Z,33.07
2018-12-01T07:52:31.594Z,30.67
2018-12-01T08:02:34.987Z,30.77
2018-12-01T08:12:38.411Z,32.50
2018-12-01T08:22:41.987Z,30.10
2018-12-01T08:32:45.282Z,30.77
2018-12-01T08:42:48.672Z,29.37
2018-12-01T08:52:52.446Z,28.43
2018-12-01T09:02:59.373Z,24.40
2018-12-01T09:13:02.591Z,24.43
2018-12-01T09:23:06.251Z,22.87
2018-12-01T09:33:09.472Z,24.17
2018-12-01T09:43:12.696Z,23.77
2018-12-01T09:53:15.942Z,23.93
2018-12-01T10:03:19.662Z,24.33
2018-12-01T10:13:23.232Z,14.60
2018-12-01T10:23:26.443Z,7.33
2018-12-01T10:33:29.659Z,6.63
2018-12-01T10:43:32.912Z,5.87
2018-12-01T10:53:36.380Z,5.53
2018-12-01T11:03:39.751Z,5.20
2018-12-01T11:13:43.069Z,4.93
2018-12-01T11:23:46.299Z,4.83
2018-12-01T11:33:49.780Z,5.60
2018-12-01T11:43:53.099Z,5.50
2018-12-01T11:53:56.703Z,6.33
2018-12-01T12:03:59.935Z,6.50
2018-12-01T12:14:03.164Z,5.87
2018-12-01T12:24:06.491Z,5.67
2018-12-01T12:34:09.835Z,5.40
2018-12-01T12:44:13.336Z,4.93
2018-12-01T12:54:16.867Z,5.10
2018-12-01T13:04:20.168Z,4.37
2018-12-01T13:14:23.770Z,3.60
2018-12-01T13:24:27.171Z,3.23
2018-12-01T13:34:31.335Z,3.30
2018-12-01T13:44:34.783Z,2.80
2018-12-01T13:54:38.120Z,3.60
2018-12-01T14:04:41.473Z,3.30
2018-12-01T14:14:44.804Z,3.33
2018-12-01T14:24:48.169Z,3.50
2018-12-01T14:34:51.508Z,3.40
2018-12-01T14:44:54.851Z,8.83
2018-12-01T14:54:58.084Z,2.93
2018-12-01T15:05:01.311Z,3.07
2018-12-01T15:15:06.267Z,3.33
2018-12-01T15:25:11.848Z,4.00
2018-12-01T15:35:15.328Z,7.40
2018-12-01T15:45:20.496Z,5.37
2018-12-01T15:55:24.312Z,6.23
2018-12-01T16:05:27.929Z,6.53
2018-12-01T16:15:34.108Z,24.80
2018-12-01T16:25:37.587Z,10.27
2018-12-01T16:35:40.919Z,6.57
2018-12-01T16:45:45.514Z,6.73
2018-12-01T16:55:49.167Z,8.63
2018-12-01T17:05:55.267Z,8.47
2018-12-01T17:15:59.090Z,9.63
2018-12-01T17:26:02.465Z,8.87
2018-12-01T17:36:05.945Z,11.60
2018-12-01T17:46:09.595Z,12.53
2018-12-01T17:56:13.214Z,12.77
2018-12-01T18:06:16.845Z,13.07
2018-12-01T18:16:20.171Z,15.60
2018-12-01T18:26:23.559Z,13.97
2018-12-01T18:36:26.838Z,14.57
2018-12-01T18:46:30.193Z,10.57
2018-12-01T18:56:34.635Z,10.10
2018-12-01T19:06:38.210Z,9.43
2018-12-01T19:16:41.802Z,9.70
2018-12-01T19:26:45.127Z,14.10
2018-12-01T19:36:48.470Z,12.33
2018-12-01T19:46:51.875Z,14.40
2018-12-01T19:56:55.516Z,15.10
2018-12-01T20:06:58.851Z,10.80
2018-12-01T20:17:02.162Z,11.20
2018-12-01T20:27:06.376Z,11.70
2018-12-01T20:37:15.087Z,13.20
2018-12-01T20:47:18.670Z,13.40
2018-12-01T20:57:26.691Z,11.30
2018-12-01T21:07:30.267Z,9.33
2018-12-01T21:17:33.704Z,9.10
2018-12-01T21:27:37.390Z,10.63
2018-12-01T21:37:40.957Z,8.63
2018-12-01T21:47:44.688Z,8.23
2018-12-01T21:57:48.908Z,6.80
2018-12-01T22:07:52.620Z,5.80
2018-12-01T22:17:57.020Z,5.10
2018-12-01T22:28:00.555Z,4.90
2018-12-01T22:38:04.061Z,4.80
2018-12-01T22:48:09.228Z,5.10
2018-12-01T22:58:13.926Z,5.70
2018-12-01T23:08:18.827Z,5.60
2018-12-01T23:18:23.671Z,6.30
2018-12-01T23:28:27.146Z,5.50
2018-12-01T23:38:30.483Z,6.10
2018-12-01T23:48:33.838Z,6.23
2018-12-01T23:58:37.211Z,6.53
